Time;durP1;ratioP1;P1;durP2;ratioP2;P2;SDS_P1;SDS_P2;PMS_P1;PMS_P2;Temp;Humidity;BMP_temperature;BMP_pressure;BME280_temperature;BME280_humidity;BME280_pressure;Samples;Min_cycle;Max_cycle;Signal;HPM_P1;HPM_P2
2022/06/16 00:01:54;;;;;;;4.57;2.10;;;;;;;16.15;77.00;101186.91;5095928;28;20436;-72
2022/06/16 00:04:21;;;;;;;3.00;2.20;;;;;;;16.16;77.11;101196.72;5095909;28;20886;-71
2022/06/16 00:06:47;;;;;;;1.70;1.50;;;;;;;16.14;77.62;101193.50;5095812;28;20518;-70
2022/06/16 00:09:14;;;;;;;1.60;1.43;;;;;;;16.08;77.92;101194.81;5095809;28;20444;-70
2022/06/16 00:11:42;;;;;;;1.83;1.23;;;;;;;16.07;77.60;101191.28;5095932;28;20444;-71
2022/06/16 00:14:10;;;;;;;2.33;2.10;;;;;;;16.10;77.19;101187.88;5095437;28;20441;-70
2022/06/16 00:16:37;;;;;;;2.80;1.93;;;;;;;16.06;77.71;101188.84;5095557;28;20487;-70
2022/06/16 00:19:03;;;;;;;2.00;1.37;;;;;;;16.05;78.04;101185.31;5095367;28;20937;-70
2022/06/16 00:21:30;;;;;;;1.80;1.53;;;;;;;16.08;77.35;101192.06;5095559;28;20460;-72
2022/06/16 00:23:57;;;;;;;2.37;1.70;;;;;;;16.08;77.42;101175.69;5095625;28;20490;-72
2022/06/16 00:26:26;;;;;;;2.73;1.80;;;;;;;16.07;77.12;101174.88;5095425;28;20456;-71
2022/06/16 00:28:55;;;;;;;3.93;1.53;;;;;;;16.08;78.51;101186.59;5095518;28;20433;-73
2022/06/16 00:31:24;;;;;;;2.70;1.57;;;;;;;16.05;77.90;101179.06;5095115;28;20490;-72
2022/06/16 00:33:51;;;;;;;3.50;1.83;;;;;;;15.98;77.89;101178.72;5095070;28;20440;-73
2022/06/16 00:36:18;;;;;;;3.40;2.10;;;;;;;15.97;78.30;101174.38;5094858;28;20481;-72
2022/06/16 00:38:45;;;;;;;2.23;1.60;;;;;;;15.95;78.85;101165.72;5094558;28;20501;-73
2022/06/16 00:41:12;;;;;;;2.10;1.80;;;;;;;15.94;78.96;101164.94;5095256;28;20442;-72
2022/06/16 00:43:40;;;;;;;4.93;1.87;;;;;;;15.91;79.34;101164.75;5095227;28;20486;-74
2022/06/16 00:46:11;;;;;;;2.23;1.67;;;;;;;15.88;79.94;101164.25;5094677;28;20472;-73
2022/06/16 00:48:41;;;;;;;4.73;2.03;;;;;;;15.87;79.32;101167.34;5095161;28;20486;-72
2022/06/16 00:51:12;;;;;;;4.87;1.77;;;;;;;15.91;79.29;101162.84;5095054;28;20459;-73
2022/06/16 00:53:40;;;;;;;2.03;1.40;;;;;;;15.95;79.19;101160.25;5094859;28;21011;-73
2022/06/16 00:56:10;;;;;;;2.03;1.50;;;;;;;15.94;80.37;101164.94;5094794;28;20481;-72
2022/06/16 00:58:40;;;;;;;1.63;1.47;;;;;;;15.93;80.48;101159.75;5094900;28;20869;-73
2022/06/16 01:01:09;;;;;;;2.20;1.70;;;;;;;15.92;80.46;101158.16;5094513;28;20944;-73
2022/06/16 01:06:23;;;;;;;2.87;1.70;;;;;;;15.93;80.28;101162.50;5094492;28;20949;-73
2022/06/16 01:08:53;;;;;;;1.87;1.40;;;;;;;15.96;80.48;101162.66;5094681;28;20539;-72
2022/06/16 01:14:41;;;;;;;3.23;2.00;;;;;;;15.89;79.68;101154.97;5019392;28;20437;-73
2022/06/16 01:17:17;;;;;;;4.30;2.03;;;;;;;15.87;77.19;101159.13;5094324;28;20484;-73
2022/06/16 01:20:09;;;;;;;2.30;1.77;;;;;;;15.77;77.87;101167.66;5094526;28;20428;-73
2022/06/16 01:23:08;;;;;;;3.53;2.23;;;;;;;15.69;78.87;101158.34;5094160;28;20429;-73
2022/06/16 01:25:49;;;;;;;3.07;1.63;;;;;;;15.69;79.42;101163.00;5094221;28;20483;-72
2022/06/16 01:28:24;;;;;;;2.63;1.87;;;;;;;15.67;81.05;101160.59;5094396;28;20425;-71
2022/06/16 01:30:59;;;;;;;2.70;1.83;;;;;;;15.68;81.57;101166.88;5094290;28;20482;-71
2022/06/16 01:33:36;;;;;;;4.80;2.23;;;;;;;15.67;82.26;101159.78;5094298;28;20425;-71
2022/06/16 01:36:09;;;;;;;2.67;1.50;;;;;;;15.66;82.42;101153.50;5094075;28;20466;-71
2022/06/16 01:38:45;;;;;;;2.53;1.90;;;;;;;15.66;82.66;101161.69;5094198;28;20485;-72
2022/06/16 01:41:20;;;;;;;2.70;1.90;;;;;;;15.66;83.15;101153.50;5094379;28;20420;-71
2022/06/16 01:43:52;;;;;;;3.00;1.87;;;;;;;15.69;82.74;101152.06;5093761;28;20433;-71
2022/06/16 01:46:24;;;;;;;3.40;2.20;;;;;;;15.62;83.32;101147.84;5093636;28;20483;-72
2022/06/16 01:48:54;;;;;;;5.97;2.27;;;;;;;15.62;83.76;101147.84;5093130;28;20466;-72
2022/06/16 01:51:28;;;;;;;3.63;2.20;;;;;;;15.67;83.76;101143.38;5093938;28;20498;-72
2022/06/16 01:53:58;;;;;;;3.03;2.20;;;;;;;15.72;84.16;101149.50;5093929;28;20427;-72
2022/06/16 01:56:30;;;;;;;8.23;2.37;;;;;;;15.70;83.96;101150.94;5093773;28;20484;-71
2022/06/16 01:59:00;;;;;;;2.50;2.00;;;;;;;15.70;83.83;101149.00;5093912;28;20425;-76
2022/06/16 02:01:32;;;;;;;3.77;1.63;;;;;;;15.70;83.93;101145.47;5095479;28;20558;-77
2022/06/16 02:04:06;;;;;;;2.70;1.77;;;;;;;15.69;84.12;101150.16;5095861;28;20421;-75
2022/06/16 02:06:37;;;;;;;4.07;2.03;;;;;;;15.70;83.87;101154.47;5093545;28;20969;-74
2022/06/16 02:09:10;;;;;;;2.80;2.30;;;;;;;15.66;84.34;101153.50;5093735;28;20421;-71
2022/06/16 02:11:38;;;;;;;2.33;1.90;;;;;;;15.66;84.08;101153.50;5093653;28;20443;-71
2022/06/16 02:14:10;;;;;;;2.90;1.73;;;;;;;15.64;84.45;101151.09;5093315;28;20449;-71
2022/06/16 02:16:40;;;;;;;1.93;1.70;;;;;;;15.63;84.76;101148.69;5093199;28;21005;-72
2022/06/16 02:19:12;;;;;;;2.57;1.67;;;;;;;15.56;84.80;101153.81;5093428;28;20494;-71
2022/06/16 02:21:41;;;;;;;3.60;2.03;;;;;;;15.55;84.50;101141.28;5093707;28;20427;-73
2022/06/16 02:24:12;;;;;;;2.87;1.80;;;;;;;15.50;84.91;101131.31;5093140;28;20441;-71
2022/06/16 02:26:38;;;;;;;2.47;2.00;;;;;;;15.47;82.96;101140.16;5093340;28;20456;-72
2022/06/16 02:29:23;;;;;;;3.30;2.70;;;;;;;15.46;81.06;101132.28;5093155;28;20962;-72
2022/06/16 02:31:58;;;;;;;1.77;1.40;;;;;;;15.45;81.56;101136.13;5093452;28;20485;-72
2022/06/16 02:34:37;;;;;;;3.87;2.60;;;;;;;15.45;82.53;101136.13;5093065;28;20793;-71
2022/06/16 02:37:26;;;;;;;5.43;1.87;;;;;;;15.45;84.18;101136.13;5093256;28;20925;-71
2022/06/16 02:40:14;;;;;;;2.20;1.60;;;;;;;15.50;84.70;101136.78;5093101;28;20420;-72
2022/06/16 02:42:51;;;;;;;3.40;2.53;;;;;;;15.54;84.78;101134.22;5093386;28;20898;-71
2022/06/16 02:45:26;;;;;;;2.70;1.90;;;;;;;15.52;85.59;101147.38;5093249;28;20416;-71
2022/06/16 02:48:05;;;;;;;2.93;2.03;;;;;;;15.53;84.87;101146.25;5092942;28;20421;-72
2022/06/16 02:50:43;;;;;;;3.10;1.67;;;;;;;15.51;85.40;101132.91;5093221;28;20448;-73
2022/06/16 02:53:20;;;;;;;4.57;2.43;;;;;;;15.51;85.27;101126.66;5093175;28;20420;-71
2022/06/16 02:55:52;;;;;;;6.20;2.20;;;;;;;15.45;85.84;101123.28;5093164;28;20464;-71
2022/06/16 02:58:22;;;;;;;3.90;2.27;;;;;;;15.42;86.06;101134.84;5093144;28;20507;-72
2022/06/16 03:00:53;;;;;;;2.17;1.70;;;;;;;15.41;85.78;101129.72;5094782;28;20456;-71
2022/06/16 03:03:24;;;;;;;3.20;2.10;;;;;;;15.40;86.18;101131.63;5096922;28;20886;-71
2022/06/16 03:05:52;;;;;;;3.00;2.47;;;;;;;15.36;86.26;101128.75;5096752;28;21045;-73
2022/06/16 03:08:19;;;;;;;4.50;2.53;;;;;;;15.39;86.49;101128.09;5097021;28;20497;-73
2022/06/16 03:10:52;;;;;;;2.60;1.80;;;;;;;15.42;86.68;101134.03;5096942;28;20451;-72
2022/06/16 03:13:21;;;;;;;2.93;2.20;;;;;;;15.37;86.86;101146.72;5097008;28;20523;-72
2022/06/16 03:15:49;;;;;;;3.37;2.10;;;;;;;15.38;86.52;101147.53;5096605;28;20492;-72
2022/06/16 03:18:16;;;;;;;1.90;1.80;;;;;;;15.46;86.30;101144.00;5096825;28;20483;-71
2022/06/16 03:20:44;;;;;;;2.43;1.80;;;;;;;15.47;86.19;101140.16;5096880;28;20467;-72
2022/06/16 03:23:11;;;;;;;8.77;3.33;;;;;;;15.50;85.99;101142.25;5096801;28;20519;-72
2022/06/16 03:25:40;;;;;;;3.43;1.60;;;;;;;15.46;86.14;101138.53;5096704;28;20854;-73
2022/06/16 03:28:08;;;;;;;3.60;2.80;;;;;;;15.49;85.79;101145.28;5096714;28;20437;-72
2022/06/16 03:30:34;;;;;;;2.80;1.87;;;;;;;15.49;85.60;101145.28;5096575;28;20539;-71
2022/06/16 03:33:01;;;;;;;3.83;2.50;;;;;;;15.44;85.33;101139.97;5096535;28;20439;-74
2022/06/16 03:35:28;;;;;;;3.60;2.63;;;;;;;15.42;85.86;101144.97;5096483;28;20523;-74
2022/06/16 03:37:56;;;;;;;2.10;1.67;;;;;;;15.35;85.84;101139.97;5096475;28;20498;-73
2022/06/16 03:40:23;;;;;;;4.20;3.10;;;;;;;15.36;86.05;101139.66;5096537;28;20445;-73
2022/06/16 03:42:50;;;;;;;3.73;2.40;;;;;;;15.41;85.84;101144.16;5096351;28;20444;-72
2022/06/16 03:45:17;;;;;;;3.10;2.13;;;;;;;15.43;85.88;101141.91;5096068;28;20512;-72
2022/06/16 03:47:44;;;;;;;3.00;2.47;;;;;;;15.39;85.51;101139.00;5096029;28;21015;-73
2022/06/16 03:50:14;;;;;;;4.77;1.90;;;;;;;15.43;84.38;101135.66;5096293;28;20531;-73
2022/06/16 03:52:41;;;;;;;8.53;2.80;;;;;;;15.38;84.34;101144.78;5096174;28;20479;-73
2022/06/16 03:55:10;;;;;;;3.10;2.20;;;;;;;15.34;84.07;101147.34;5096234;28;20528;-76
2022/06/16 03:57:37;;;;;;;2.43;1.80;;;;;;;15.34;83.83;101135.63;5096038;28;20567;-75
2022/06/16 04:00:05;;;;;;;2.00;1.40;;;;;;;15.40;83.42;101142.53;5096157;28;20524;-76
2022/06/16 04:02:32;;;;;;;2.80;2.30;;;;;;;15.38;84.06;101142.88;5095739;28;20543;-74
2022/06/16 04:04:57;;;;;;;8.73;3.07;;;;;;;15.35;84.85;101132.56;5095784;28;20447;-76
2022/06/16 04:07:24;;;;;;;1.90;1.63;;;;;;;15.41;85.25;101133.25;5096020;28;20453;-75
2022/06/16 04:09:51;;;;;;;2.30;1.80;;;;;;;15.42;84.83;101136.78;5095588;28;20198;-75
2022/06/16 04:12:18;;;;;;;3.47;2.20;;;;;;;15.41;85.37;101135.19;5094664;28;20863;-75
2022/06/16 04:14:45;;;;;;;3.67;2.43;;;;;;;15.43;85.34;101150.09;5095524;28;20476;-75
2022/06/16 04:17:12;;;;;;;2.40;1.73;;;;;;;15.50;85.07;101152.38;5095684;28;20591;-76
2022/06/16 04:20:11;;;;;;;3.67;2.00;;;;;;;15.52;84.28;101152.84;5095817;28;20459;-76
2022/06/16 04:22:25;;;;;;;6.50;1.97;;;;;;;15.47;83.83;101145.59;5095167;28;20437;-75
2022/06/16 04:24:52;;;;;;;5.07;2.37;;;;;;;15.47;84.28;101139.34;5095361;28;20484;-76
2022/06/16 04:27:20;;;;;;;6.23;2.80;;;;;;;15.54;84.11;101145.94;5095639;28;20492;-75
2022/06/16 04:29:47;;;;;;;2.23;2.03;;;;;;;15.52;84.51;101150.09;5095648;28;20523;-75
2022/06/16 04:32:13;;;;;;;4.07;2.27;;;;;;;15.49;82.46;101158.94;5095488;28;20531;-76
2022/06/16 04:34:40;;;;;;;2.03;1.73;;;;;;;15.58;83.29;101157.00;5095403;28;20871;-75
2022/06/16 04:37:07;;;;;;;2.87;2.27;;;;;;;15.64;82.18;101159.31;5094987;28;20596;-75
2022/06/16 04:39:34;;;;;;;2.87;1.93;;;;;;;15.72;82.68;101165.91;5095186;28;20472;-77
2022/06/16 04:42:01;;;;;;;3.10;2.37;;;;;;;15.77;82.99;101159.47;5095381;28;20466;-75
2022/06/16 04:44:29;;;;;;;6.27;2.03;;;;;;;15.79;82.84;101158.00;5095025;28;20475;-75
2022/06/16 04:46:55;;;;;;;2.23;1.73;;;;;;;15.82;83.21;101160.09;5116979;22;21544;-71
2022/06/16 04:49:22;;;;;;;3.50;2.20;;;;;;;15.82;82.99;101157.38;5074587;28;20512;-71
2022/06/16 04:51:48;;;;;;;4.17;2.03;;;;;;;15.84;83.20;101159.78;5074783;28;20516;-71
2022/06/16 04:54:15;;;;;;;2.53;2.07;;;;;;;15.92;82.97;101160.91;5074763;28;20442;-70
2022/06/16 04:56:41;;;;;;;6.63;2.30;;;;;;;15.92;82.42;101150.78;5074558;28;20876;-71
2022/06/16 04:59:08;;;;;;;2.63;1.93;;;;;;;15.98;82.60;101154.13;5074599;28;20581;-71
2022/06/16 05:01:36;;;;;;;4.47;2.23;;;;;;;16.04;82.76;101141.91;5074578;28;20589;-69
2022/06/16 05:04:03;;;;;;;3.53;1.97;;;;;;;16.11;82.89;101151.25;5074584;28;20521;-69
2022/06/16 05:06:29;;;;;;;3.00;1.67;;;;;;;16.17;82.21;101157.34;5074494;28;20437;-69
2022/06/16 05:08:56;;;;;;;2.80;2.10;;;;;;;16.24;81.99;101167.75;5074382;28;20465;-69
2022/06/16 05:11:22;;;;;;;3.37;2.03;;;;;;;16.23;81.23;101169.69;5074395;28;20528;-71
2022/06/16 05:13:49;;;;;;;4.57;2.00;;;;;;;16.37;81.09;101170.28;5074041;28;20951;-70
2022/06/16 05:16:16;;;;;;;3.43;1.80;;;;;;;16.47;80.48;101166.44;5073991;28;20863;-69
2022/06/16 05:18:43;;;;;;;4.40;2.67;;;;;;;16.55;81.03;101167.50;5074186;28;20509;-69
2022/06/16 05:21:13;;;;;;;3.60;2.20;;;;;;;16.61;80.15;101172.50;5073885;28;20899;-69
2022/06/16 05:23:39;;;;;;;2.57;1.40;;;;;;;16.66;80.34;101176.97;5073639;28;20445;-69
2022/06/16 05:26:09;;;;;;;4.23;1.60;;;;;;;16.77;80.50;101182.91;5073753;28;20531;-70
2022/06/16 05:28:36;;;;;;;3.77;2.10;;;;;;;16.83;80.12;101171.47;5073666;28;20544;-70
2022/06/16 05:31:03;;;;;;;4.40;1.63;;;;;;;16.96;79.05;101177.84;5073716;28;20456;-70
2022/06/16 05:33:29;;;;;;;2.20;1.70;;;;;;;17.12;79.38;101181.63;5073967;28;20469;-70
2022/06/16 05:35:58;;;;;;;2.03;1.60;;;;;;;17.21;78.98;101173.34;5073826;28;20524;-70
2022/06/16 05:38:25;;;;;;;2.70;1.90;;;;;;;17.29;78.44;101177.97;5073773;28;20477;-70
2022/06/16 05:40:57;;;;;;;4.90;2.40;;;;;;;17.36;77.24;101180.22;5073527;28;21010;-70
2022/06/16 05:43:23;;;;;;;2.83;1.83;;;;;;;17.43;77.13;101172.25;5073808;28;20459;-71
2022/06/16 05:45:51;;;;;;;2.93;1.30;;;;;;;17.53;77.41;101168.31;5073745;28;20445;-70
2022/06/16 05:48:18;;;;;;;1.77;1.23;;;;;;;17.56;76.81;101175.88;5073438;28;20473;-70
2022/06/16 05:50:45;;;;;;;2.20;1.40;;;;;;;17.59;76.52;101181.47;5073365;28;21042;-70
2022/06/16 05:53:13;;;;;;;1.80;1.53;;;;;;;17.68;76.86;101186.91;5073612;28;20532;-70
2022/06/16 05:55:40;;;;;;;2.40;1.53;;;;;;;17.78;77.54;101189.25;5073612;28;20472;-70
2022/06/16 05:58:07;;;;;;;1.90;1.53;;;;;;;17.85;76.65;101195.03;5073427;28;20532;-70
2022/06/16 06:00:33;;;;;;;3.50;1.50;;;;;;;17.87;74.21;101200.94;5073224;28;20449;-70
2022/06/16 06:03:01;;;;;;;9.60;1.80;;;;;;;18.02;74.54;101196.81;5073546;28;20444;-70
2022/06/16 06:05:29;;;;;;;3.67;1.77;;;;;;;18.15;74.70;101200.41;5073192;28;20950;-70
2022/06/16 06:16:35;;;;;;;5.70;1.57;;;;;;;18.62;71.95;101202.81;5073522;28;20911;-70
2022/06/16 06:19:23;;;;;;;2.63;1.83;;;;;;;18.76;69.67;101208.00;5073532;28;20468;-70
2022/06/16 06:21:59;;;;;;;3.67;1.67;;;;;;;18.88;69.01;101221.75;5073011;28;20820;-70
2022/06/16 06:24:26;;;;;;;2.63;1.53;;;;;;;18.86;69.59;101222.09;5073340;28;20516;-70
2022/06/16 06:26:56;;;;;;;1.60;1.37;;;;;;;18.93;70.23;101228.97;5073155;28;20541;-70
2022/06/16 06:29:23;;;;;;;3.60;1.70;;;;;;;18.94;71.49;101219.56;5072856;28;20954;-69
2022/06/16 06:31:49;;;;;;;2.10;1.57;;;;;;;18.89;70.44;101217.84;5073159;28;20528;-70
2022/06/16 06:34:16;;;;;;;3.20;1.50;;;;;;;18.94;69.92;101225.06;5073099;28;20536;-70
2022/06/16 06:36:42;;;;;;;1.53;1.27;;;;;;;19.07;69.53;101234.91;5072279;28;20472;-70
2022/06/16 06:39:09;;;;;;;2.57;1.43;;;;;;;19.15;70.13;101231.25;5073016;28;20585;-70
2022/06/16 06:41:36;;;;;;;1.20;1.00;;;;;;;19.24;70.75;101220.16;5073105;28;20477;-70
2022/06/16 06:44:04;;;;;;;1.20;1.00;;;;;;;19.31;70.50;101223.94;5072808;28;21007;-70
2022/06/16 06:46:31;;;;;;;2.90;1.30;;;;;;;19.40;70.09;101230.13;5072745;28;20540;-70
2022/06/16 06:48:57;;;;;;;4.00;1.50;;;;;;;19.47;68.76;101231.47;5072855;28;20491;-70
2022/06/16 06:51:24;;;;;;;2.57;1.73;;;;;;;19.57;68.23;101228.28;5072944;28;20450;-70
2022/06/16 06:53:50;;;;;;;2.00;1.50;;;;;;;19.73;68.40;101234.66;5072953;28;20524;-70
2022/06/16 06:56:18;;;;;;;1.73;1.50;;;;;;;19.80;67.05;101239.59;5072947;28;20529;-70
2022/06/16 06:58:44;;;;;;;2.20;1.20;;;;;;;19.87;66.15;101234.28;5072465;28;20489;-70
2022/06/16 07:01:12;;;;;;;2.10;1.30;;;;;;;19.94;66.10;101239.19;5072903;28;20524;-70
2022/06/16 07:03:39;;;;;;;4.60;1.60;;;;;;;19.99;65.25;101231.50;5072559;28;20528;-70
2022/06/16 07:06:06;;;;;;;1.47;1.37;;;;;;;20.19;65.77;101237.16;5072867;28;20521;-70
2022/06/16 07:08:33;;;;;;;1.63;1.37;;;;;;;20.28;64.17;101241.38;5072759;28;20457;-70
2022/06/16 07:11:01;;;;;;;2.40;1.70;;;;;;;20.36;64.69;101245.91;5072793;28;20485;-70
2022/06/16 07:13:27;;;;;;;5.60;2.00;;;;;;;20.46;62.59;101249.31;5072785;28;20492;-73
2022/06/16 07:15:54;;;;;;;2.13;1.27;;;;;;;20.38;63.42;101260.13;5072750;28;20520;-69
2022/06/16 07:18:22;;;;;;;1.40;1.10;;;;;;;20.33;62.14;101270.59;5072884;28;20523;-70
2022/06/16 07:20:50;;;;;;;1.87;1.50;;;;;;;20.28;64.03;101255.13;5072728;28;20535;-70
2022/06/16 07:23:18;;;;;;;3.53;1.27;;;;;;;20.29;64.26;101270.47;5072762;28;20472;-69
2022/06/16 07:25:45;;;;;;;5.70;1.57;;;;;;;20.29;64.40;101273.22;5072616;28;20441;-70
2022/06/16 07:28:12;;;;;;;1.00;0.90;;;;;;;20.31;63.45;101279.16;5072614;28;20544;-69
2022/06/16 07:30:38;;;;;;;4.20;1.30;;;;;;;20.40;64.10;101271.56;5072636;28;20532;-70
2022/06/16 07:33:05;;;;;;;1.70;1.23;;;;;;;20.54;64.47;101284.97;5072572;28;20437;-71
2022/06/16 07:35:33;;;;;;;1.90;0.97;;;;;;;20.61;63.08;101276.88;5072515;28;20437;-71
2022/06/16 07:38:00;;;;;;;2.50;1.27;;;;;;;20.60;62.67;101271.75;5072430;28;20551;-71
2022/06/16 07:40:27;;;;;;;1.60;1.27;;;;;;;20.60;61.88;101249.72;5072578;28;20473;-70
2022/06/16 07:42:56;;;;;;;2.80;1.60;;;;;;;20.59;62.31;101240.66;5072244;28;21009;-71
2022/06/16 07:45:23;;;;;;;1.80;0.93;;;;;;;20.56;62.83;101240.56;5072470;28;20444;-71
2022/06/16 07:47:50;;;;;;;2.10;1.50;;;;;;;20.53;62.92;101249.53;5073829;28;20481;-71
2022/06/16 07:50:17;;;;;;;1.50;1.20;;;;;;;20.55;62.99;101261.00;5075686;28;20907;-71
2022/06/16 07:52:45;;;;;;;1.80;1.13;;;;;;;20.51;62.31;101263.66;5075609;28;20531;-71
2022/06/16 07:55:13;;;;;;;2.70;1.80;;;;;;;20.52;62.35;101264.44;5075989;28;20532;-71
2022/06/16 07:57:44;;;;;;;2.23;1.27;;;;;;;20.38;61.70;101281.34;5076315;28;20464;-71
2022/06/16 08:00:13;;;;;;;2.20;1.30;;;;;;;20.48;62.33;101274.56;5075409;28;20563;-71
2022/06/16 08:02:39;;;;;;;2.87;1.20;;;;;;;20.47;61.88;101279.22;5075809;28;20524;-71
2022/06/16 08:05:07;;;;;;;1.90;1.30;;;;;;;20.62;62.01;101277.69;5075749;28;20529;-71
2022/06/16 08:07:34;;;;;;;2.00;1.37;;;;;;;20.76;62.40;101272.59;5075601;28;20492;-71
2022/06/16 08:10:02;;;;;;;2.00;1.30;;;;;;;20.94;60.88;101277.72;5075653;28;20435;-71
2022/06/16 08:12:29;;;;;;;1.27;1.00;;;;;;;21.08;61.74;101280.88;5075315;28;20476;-71
2022/06/16 08:14:56;;;;;;;2.27;1.63;;;;;;;21.15;59.24;101279.06;5075578;28;20537;-71
2022/06/16 08:17:26;;;;;;;3.07;1.40;;;;;;;21.25;59.93;101280.50;5075434;28;20496;-71
2022/06/16 08:19:53;;;;;;;2.13;1.37;;;;;;;21.28;58.72;101279.78;5075346;28;20577;-71
2022/06/16 08:22:20;;;;;;;1.07;0.60;;;;;;;21.28;58.04;101276.22;5075101;28;21033;-71
2022/06/16 08:24:48;;;;;;;2.90;1.53;;;;;;;21.32;59.24;101279.91;5075349;28;20521;-71
2022/06/16 08:27:16;;;;;;;1.00;0.90;;;;;;;21.49;59.74;101292.50;5075260;28;20456;-71
2022/06/16 08:29:45;;;;;;;1.50;0.90;;;;;;;21.56;58.08;101285.22;5075265;28;20801;-71
2022/06/16 08:32:16;;;;;;;1.23;0.93;;;;;;;21.63;58.65;101284.56;5075531;28;20447;-71
2022/06/16 08:34:42;;;;;;;2.30;1.40;;;;;;;21.75;59.06;101297.44;5075210;28;20430;-72
2022/06/16 08:37:09;;;;;;;2.10;1.50;;;;;;;21.85;58.09;101303.19;5075116;28;20544;-72
2022/06/16 08:39:36;;;;;;;1.70;1.10;;;;;;;21.93;55.17;101312.44;5074970;28;20921;-71
2022/06/16 08:42:10;;;;;;;1.10;0.97;;;;;;;22.06;56.03;101307.59;5075100;28;20445;-71
2022/06/16 08:44:41;;;;;;;2.00;1.33;;;;;;;22.10;55.31;101302.94;5074928;28;20487;-71
2022/06/16 08:47:14;;;;;;;1.70;1.10;;;;;;;22.22;55.93;101311.09;5074509;28;20556;-71
2022/06/16 08:49:51;;;;;;;3.20;1.30;;;;;;;22.20;53.63;101315.38;5074887;28;20464;-71
2022/06/16 08:52:28;;;;;;;2.10;1.23;;;;;;;22.17;54.72;101316.91;5074874;28;20529;-71
2022/06/16 08:55:09;;;;;;;2.00;1.27;;;;;;;22.31;54.08;101316.41;5074793;28;20425;-71
2022/06/16 08:57:47;;;;;;;2.80;1.57;;;;;;;22.54;55.12;101313.72;5074412;28;20533;-71
2022/06/16 09:00:18;;;;;;;2.00;1.30;;;;;;;22.78;54.14;101323.63;5074653;28;20504;-71
2022/06/16 09:02:52;;;;;;;1.43;0.87;;;;;;;23.07;53.52;101327.75;5074647;28;20466;-71
2022/06/16 09:05:43;;;;;;;1.73;1.50;;;;;;;23.21;53.01;101328.00;5074341;28;20462;-71
2022/06/16 09:08:23;;;;;;;3.80;1.50;;;;;;;23.42;52.50;101333.88;5074154;28;21025;-71
2022/06/16 09:10:56;;;;;;;2.17;1.53;;;;;;;23.51;51.79;101327.31;5074490;28;20460;-71
2022/06/16 09:14:10;;;;;;;1.77;1.30;;;;;;;23.66;51.80;101337.44;5074149;28;20429;-70
2022/06/16 09:16:49;;;;;;;5.17;1.53;;;;;;;23.81;52.76;101335.69;5071564;28;20547;-71
2022/06/16 09:19:32;;;;;;;1.30;1.20;;;;;;;23.89;50.54;101340.94;5073968;28;20994;-71
2022/06/16 09:22:09;;;;;;;1.70;1.37;;;;;;;23.91;48.39;101337.81;5074288;28;20428;-71
2022/06/16 09:24:50;;;;;;;3.53;1.27;;;;;;;23.77;48.17;101340.34;5074158;28;20903;-71
2022/06/16 09:27:21;;;;;;;3.13;1.67;;;;;;;23.79;50.09;101338.81;5073814;28;20460;-71
2022/06/16 09:29:54;;;;;;;2.00;1.40;;;;;;;23.80;49.66;101336.84;5074079;28;20432;-71
2022/06/16 09:32:29;;;;;;;1.73;1.17;;;;;;;23.70;49.28;101343.03;5074121;28;20430;-71
2022/06/16 09:35:02;;;;;;;1.77;1.20;;;;;;;23.70;48.20;101345.81;5073733;28;20457;-71
2022/06/16 09:37:35;;;;;;;1.70;1.27;;;;;;;23.52;48.30;101351.03;5073923;28;20496;-71
2022/06/16 09:40:07;;;;;;;5.17;1.13;;;;;;;23.44;49.45;101349.31;5073908;28;20461;-70
2022/06/16 09:42:39;;;;;;;1.83;1.20;;;;;;;23.33;51.17;101361.00;5073872;28;20425;-70
2022/06/16 09:45:14;;;;;;;1.80;1.20;;;;;;;23.45;49.31;101354.47;5073869;28;20529;-71
2022/06/16 09:47:47;;;;;;;2.03;1.20;;;;;;;23.38;49.72;101366.22;5073254;28;20559;-71
2022/06/16 09:50:22;;;;;;;1.37;1.10;;;;;;;23.62;50.20;101355.91;5073768;28;20457;-71
2022/06/16 09:52:53;;;;;;;3.13;1.47;;;;;;;24.01;49.02;101359.31;5073433;28;20524;-71
2022/06/16 09:55:25;;;;;;;5.90;1.60;;;;;;;24.25;48.63;101365.56;5073659;28;20702;-71
2022/06/16 09:57:56;;;;;;;2.77;1.40;;;;;;;24.38;47.81;101364.97;5073532;28;20465;-70
2022/06/16 10:00:25;;;;;;;1.00;0.80;;;;;;;24.19;46.13;101359.56;5073744;28;20472;-71
2022/06/16 10:02:57;;;;;;;1.53;1.30;;;;;;;24.23;45.47;101354.88;5073386;28;20445;-71
2022/06/16 10:05:39;;;;;;;1.40;1.17;;;;;;;24.39;46.92;101361.03;5073217;28;20465;-71
2022/06/16 10:08:21;;;;;;;1.47;1.03;;;;;;;24.44;45.20;101365.44;5073445;28;20453;-71
2022/06/16 10:10:56;;;;;;;2.10;1.33;;;;;;;24.49;45.06;101367.09;5072609;28;20855;-71
2022/06/16 10:13:32;;;;;;;3.10;1.13;;;;;;;24.66;45.02;101372.06;5073428;28;20453;-71
2022/06/16 10:16:04;;;;;;;1.20;1.00;;;;;;;24.60;45.83;101371.56;5073434;28;20457;-71
2022/06/16 10:18:32;;;;;;;2.47;1.43;;;;;;;24.75;46.80;101378.09;5073318;28;20540;-74
2022/06/16 10:20:59;;;;;;;1.30;1.10;;;;;;;24.90;46.58;101377.06;5073279;28;20523;-74
2022/06/16 10:23:30;;;;;;;1.33;0.93;;;;;;;25.04;47.19;101372.84;5073326;28;20437;-71
2022/06/16 10:25:58;;;;;;;1.83;1.30;;;;;;;25.08;46.26;101368.94;5073315;28;20425;-71
2022/06/16 10:28:32;;;;;;;2.10;1.00;;;;;;;25.13;45.31;101376.91;5073415;28;20544;-71
2022/06/16 10:31:00;;;;;;;1.60;1.00;;;;;;;25.05;45.11;101377.19;5072946;28;20970;-71
2022/06/16 10:33:29;;;;;;;2.50;1.30;;;;;;;24.97;45.54;101381.91;5073223;28;20441;-71
2022/06/16 10:36:04;;;;;;;1.40;0.93;;;;;;;24.89;44.70;101386.56;5073194;28;20469;-71
2022/06/16 10:38:35;;;;;;;1.17;0.80;;;;;;;25.04;45.69;101390.28;5073107;28;20465;-70
2022/06/16 10:41:04;;;;;;;2.40;1.23;;;;;;;25.08;44.35;101382.03;5073059;28;20828;-71
2022/06/16 10:43:36;;;;;;;1.70;1.30;;;;;;;25.04;43.92;101392.25;5072751;28;20477;-71
2022/06/16 10:46:11;;;;;;;5.03;1.00;;;;;;;25.01;44.43;101384.69;5072985;28;20429;-74
2022/06/16 10:48:41;;;;;;;4.23;1.40;;;;;;;25.09;45.57;101387.19;5073894;28;20473;-71
2022/06/16 10:51:12;;;;;;;1.90;1.30;;;;;;;25.16;45.35;101392.00;5072991;28;20473;-72
2022/06/16 10:53:42;;;;;;;1.23;1.00;;;;;;;24.91;44.59;101400.81;5072613;28;20424;-71
2022/06/16 10:56:11;;;;;;;1.23;0.93;;;;;;;24.84;44.11;101395.22;5073037;28;20445;-71
2022/06/16 10:58:49;;;;;;;1.30;0.90;;;;;;;24.48;43.54;101410.63;5072879;28;20495;-71
2022/06/16 11:01:21;;;;;;;1.40;0.80;;;;;;;24.41;44.83;101403.00;5072648;28;20891;-71
2022/06/16 11:03:50;;;;;;;2.00;1.60;;;;;;;24.40;45.67;101406.94;5072620;28;20464;-71
2022/06/16 11:06:21;;;;;;;1.50;0.93;;;;;;;24.42;45.23;101417.66;5072944;28;20469;-71
2022/06/16 11:08:52;;;;;;;1.60;1.17;;;;;;;24.27;46.11;101411.09;5072776;28;20552;-71
2022/06/16 11:11:32;;;;;;;1.10;0.93;;;;;;;24.02;44.74;101407.16;5072964;28;20521;-71
2022/06/16 11:14:02;;;;;;;1.70;1.00;;;;;;;24.05;46.74;101411.97;5072905;28;20434;-71
2022/06/16 11:16:32;;;;;;;1.43;1.33;;;;;;;24.18;45.76;101418.88;5072743;28;20516;-71
2022/06/16 11:19:07;;;;;;;1.80;1.40;;;;;;;24.27;47.07;101421.38;5072659;28;20545;-71
2022/06/16 11:21:35;;;;;;;1.67;1.10;;;;;;;24.63;47.33;101414.34;5073697;28;20913;-71
2022/06/16 11:24:05;;;;;;;2.57;1.20;;;;;;;25.15;46.62;101418.16;5076185;28;20448;-71
2022/06/16 11:26:35;;;;;;;1.20;1.03;;;;;;;25.67;43.48;101419.00;5076501;28;20476;-71
2022/06/16 11:29:21;;;;;;;2.93;1.43;;;;;;;25.89;42.32;101415.25;5076414;28;20541;-71
2022/06/16 11:31:52;;;;;;;1.53;1.30;;;;;;;25.81;41.49;101421.94;5076392;28;20520;-72
2022/06/16 11:34:22;;;;;;;1.90;1.33;;;;;;;26.16;42.12;101423.34;5076209;28;20421;-71
2022/06/16 11:37:09;;;;;;;3.77;1.10;;;;;;;26.82;41.69;101421.31;5076289;28;20465;-71
2022/06/16 11:39:47;;;;;;;1.77;1.20;;;;;;;27.13;39.42;101425.41;5076229;28;20475;-71
2022/06/16 11:42:37;;;;;;;0.97;0.80;;;;;;;27.39;39.04;101421.47;5076295;28;20429;-71
2022/06/16 11:45:10;;;;;;;1.47;0.93;;;;;;;27.65;38.67;101419.50;5075866;28;20520;-72
2022/06/16 11:47:50;;;;;;;1.20;0.70;;;;;;;27.73;39.50;101417.56;5075835;28;20483;-71
2022/06/16 11:50:30;;;;;;;2.50;1.37;;;;;;;28.03;40.36;101414.34;5076160;28;20451;-71
2022/06/16 11:53:07;;;;;;;1.20;0.87;;;;;;;28.14;38.19;101421.47;5075775;28;20513;-72
2022/06/16 11:55:38;;;;;;;1.70;1.23;;;;;;;28.05;38.61;101414.72;5076030;28;20500;-71